Time;durP1;ratioP1;P1;durP2;ratioP2;P2;SDS_P1;SDS_P2;PMS_P1;PMS_P2;Temp;Humidity;BMP_temperature;BMP_pressure;BME280_temperature;BME280_humidity;BME280_pressure;Samples;Min_cycle;Max_cycle;Signal;HPM_P1;HPM_P2
2021/11/30 00:00:17;;;;;;;13.03;10.20;;;0.70;99.90;;;;;;6105265;28;20575;-66
2021/11/30 00:03:21;;;;;;;11.57;10.13;;;0.70;99.90;;;;;;6105597;28;20481;-67
2021/11/30 00:06:25;;;;;;;11.10;9.60;;;0.70;99.90;;;;;;6106601;28;20495;-66
2021/11/30 00:12:53;;;;;;;11.27;10.10;;;0.80;99.90;;;;;;6105583;28;20480;-65
2021/11/30 00:15:57;;;;;;;11.13;9.87;;;0.80;99.90;;;;;;6104402;28;20487;-66
2021/11/30 00:19:00;;;;;;;10.80;9.70;;;0.80;99.90;;;;;;6104143;28;20487;-66
2021/11/30 00:22:05;;;;;;;11.60;10.40;;;0.80;99.90;;;;;;6114344;28;20479;-64
2021/11/30 00:25:09;;;;;;;10.53;9.50;;;0.80;99.90;;;;;;6127885;28;20521;-67
2021/11/30 00:28:14;;;;;;;12.20;10.93;;;0.90;99.90;;;;;;6127701;28;20455;-66
2021/11/30 00:31:17;;;;;;;12.67;11.37;;;0.90;99.90;;;;;;6127973;28;20459;-67
2021/11/30 00:34:20;;;;;;;12.53;10.10;;;0.90;99.90;;;;;;6126833;28;20943;-68
2021/11/30 00:37:23;;;;;;;15.10;10.80;;;0.80;99.90;;;;;;6121292;28;20484;-63
2021/11/30 00:40:27;;;;;;;10.20;9.20;;;0.80;99.90;;;;;;6103277;28;20943;-68
2021/11/30 00:43:34;;;;;;;10.90;9.20;;;0.90;99.90;;;;;;6103908;28;20483;-67
2021/11/30 00:46:39;;;;;;;10.80;9.60;;;0.80;99.90;;;;;;6103931;28;20481;-67
2021/11/30 00:49:43;;;;;;;10.00;8.83;;;0.80;99.90;;;;;;6103696;28;20523;-66
2021/11/30 00:52:47;;;;;;;9.20;8.30;;;0.80;99.90;;;;;;6103346;28;20999;-67
2021/11/30 00:55:50;;;;;;;10.87;8.43;;;0.80;99.90;;;;;;6103303;28;20476;-64
2021/11/30 00:58:55;;;;;;;10.17;9.20;;;0.80;99.90;;;;;;6103804;28;20820;-66
2021/11/30 01:01:59;;;;;;;13.20;9.77;;;0.70;99.90;;;;;;6102950;28;20922;-67
2021/11/30 01:05:05;;;;;;;11.10;8.30;;;0.70;99.90;;;;;;6103187;28;20472;-67
2021/11/30 01:08:08;;;;;;;8.53;7.70;;;0.70;99.90;;;;;;6103525;28;20492;-67
2021/11/30 01:11:11;;;;;;;9.77;8.80;;;0.70;99.90;;;;;;6102937;28;20949;-66
2021/11/30 01:14:16;;;;;;;12.57;11.23;;;0.80;99.90;;;;;;6102600;28;20488;-67
2021/11/30 01:17:19;;;;;;;11.20;9.10;;;0.80;99.90;;;;;;6102794;28;20492;-67
2021/11/30 01:20:22;;;;;;;11.23;9.27;;;0.70;99.90;;;;;;6103359;28;20487;-66
2021/11/30 01:23:29;;;;;;;11.63;9.13;;;0.70;99.90;;;;;;6094765;28;20550;-66
2021/11/30 01:26:33;;;;;;;10.50;9.40;;;0.70;99.90;;;;;;6103285;28;20491;-66
2021/11/30 01:29:38;;;;;;;12.60;9.57;;;0.60;99.90;;;;;;6102821;28;20495;-66
2021/11/30 01:32:42;;;;;;;13.40;9.97;;;0.70;99.90;;;;;;6104946;28;20481;-68
2021/11/30 01:35:47;;;;;;;10.90;8.80;;;0.60;99.90;;;;;;6105514;28;20473;-67
2021/11/30 01:38:50;;;;;;;9.63;8.73;;;0.60;99.90;;;;;;6106170;28;20488;-67
2021/11/30 01:41:54;;;;;;;11.13;9.40;;;0.50;99.90;;;;;;6105293;28;20473;-67
2021/11/30 01:45:05;;;;;;;9.57;8.40;;;0.50;99.90;;;;;;6107234;28;20472;-66
2021/11/30 01:51:30;;;;;;;8.97;8.10;;;0.50;99.90;;;;;;6107518;28;20488;-65
2021/11/30 01:54:38;;;;;;;12.30;10.50;;;0.50;99.90;;;;;;6107186;28;20476;-66
2021/11/30 01:57:42;;;;;;;10.13;8.47;;;0.40;99.90;;;;;;6108400;28;20473;-66
2021/11/30 02:00:48;;;;;;;10.73;9.70;;;0.50;99.90;;;;;;6108644;28;20481;-66
2021/11/30 02:03:51;;;;;;;9.33;8.40;;;0.50;99.90;;;;;;6108316;28;20555;-66
2021/11/30 02:06:55;;;;;;;11.50;9.30;;;0.50;99.90;;;;;;6107919;28;20976;-66
2021/11/30 02:09:58;;;;;;;9.90;8.60;;;0.50;99.90;;;;;;6107488;28;20481;-65
2021/11/30 02:13:02;;;;;;;10.27;8.80;;;0.40;99.90;;;;;;6106244;28;20826;-65
2021/11/30 02:16:07;;;;;;;11.87;9.90;;;0.40;99.90;;;;;;6105212;28;20485;-65
2021/11/30 02:19:11;;;;;;;9.40;8.17;;;0.40;99.90;;;;;;6105069;28;20433;-66
2021/11/30 02:22:16;;;;;;;10.73;8.50;;;0.40;99.90;;;;;;6104264;28;20766;-65
2021/11/30 02:25:19;;;;;;;9.30;8.30;;;0.50;99.90;;;;;;6098540;28;20781;-65
2021/11/30 02:28:22;;;;;;;9.33;8.43;;;0.50;99.90;;;;;;6102681;28;20453;-65
2021/11/30 02:31:27;;;;;;;9.00;8.10;;;0.50;99.90;;;;;;6102489;28;20477;-66
2021/11/30 02:34:31;;;;;;;7.83;7.13;;;0.40;99.90;;;;;;6102301;28;20544;-66
2021/11/30 02:37:39;;;;;;;8.73;7.83;;;0.40;99.90;;;;;;6101727;28;20802;-68
2021/11/30 02:40:42;;;;;;;9.47;8.47;;;0.40;99.90;;;;;;6102004;28;20839;-66
2021/11/30 02:43:45;;;;;;;11.53;9.40;;;0.20;99.90;;;;;;6101968;28;20476;-66
2021/11/30 02:46:51;;;;;;;8.43;7.40;;;0.20;99.90;;;;;;6101718;28;20477;-66
2021/11/30 02:49:54;;;;;;;8.97;8.07;;;0.20;99.90;;;;;;6102027;28;20991;-65
2021/11/30 02:52:59;;;;;;;7.73;7.00;;;0.10;99.90;;;;;;6101904;28;20491;-66
2021/11/30 02:56:02;;;;;;;8.50;7.07;;;0.00;99.90;;;;;;6103024;28;20487;-66
2021/11/30 02:59:05;;;;;;;7.77;6.97;;;0.10;99.90;;;;;;6106309;28;20480;-66
2021/11/30 03:02:12;;;;;;;12.47;8.07;;;0.10;99.90;;;;;;6105950;28;20487;-66
2021/11/30 03:05:15;;;;;;;10.07;8.40;;;0.10;99.90;;;;;;6105583;28;20488;-66
2021/11/30 03:08:20;;;;;;;9.43;6.83;;;0.10;99.90;;;;;;6105430;28;20998;-66
2021/11/30 03:11:23;;;;;;;7.60;6.90;;;0.00;99.90;;;;;;6097009;28;20484;-66
2021/11/30 03:14:28;;;;;;;9.20;7.60;;;0.00;99.90;;;;;;6105338;28;20484;-66
2021/11/30 03:17:32;;;;;;;9.30;6.73;;;-0.10;99.90;;;;;;6105236;28;20475;-66
2021/11/30 03:20:35;;;;;;;7.57;6.97;;;0.00;99.90;;;;;;6106236;28;20476;-65
2021/11/30 03:23:41;;;;;;;8.33;7.47;;;0.00;99.90;;;;;;6105815;28;20468;-65
2021/11/30 03:26:44;;;;;;;7.90;7.20;;;0.00;99.90;;;;;;6105173;28;20518;-64
2021/11/30 03:29:48;;;;;;;7.37;6.70;;;0.00;99.90;;;;;;6105284;28;20953;-64
2021/11/30 03:36:26;;;;;;;6.20;5.60;;;0.00;99.90;;;;;;6055918;28;20784;-64
2021/11/30 03:39:31;;;;;;;7.80;5.77;;;0.10;99.90;;;;;;6056309;28;20474;-64
2021/11/30 03:42:34;;;;;;;10.17;6.53;;;0.00;99.90;;;;;;6103179;28;20479;-64
2021/11/30 03:45:37;;;;;;;7.10;6.40;;;0.10;99.90;;;;;;6105442;28;20480;-64
2021/11/30 03:48:41;;;;;;;6.90;6.20;;;0.10;99.90;;;;;;6104977;28;20468;-64
2021/11/30 03:51:44;;;;;;;7.37;6.27;;;0.20;99.90;;;;;;6104458;28;21032;-64
2021/11/30 03:54:49;;;;;;;7.20;6.50;;;0.10;99.90;;;;;;6104993;28;20491;-64
2021/11/30 03:57:52;;;;;;;10.57;7.30;;;0.10;99.90;;;;;;6105367;28;20481;-64
2021/11/30 04:00:55;;;;;;;8.40;6.90;;;0.10;99.90;;;;;;6105195;28;20801;-64
2021/11/30 04:04:01;;;;;;;7.50;6.70;;;0.00;99.90;;;;;;6104367;28;20944;-64
2021/11/30 04:07:04;;;;;;;7.20;6.50;;;-0.20;99.90;;;;;;6104158;28;20477;-64
2021/11/30 04:10:09;;;;;;;8.63;6.40;;;-0.20;99.90;;;;;;6104601;28;20466;-64
2021/11/30 04:13:13;;;;;;;6.87;6.10;;;-0.10;99.90;;;;;;6104050;28;20456;-64
2021/11/30 04:16:16;;;;;;;6.60;6.00;;;-0.10;99.90;;;;;;6103894;28;20488;-64
2021/11/30 04:19:19;;;;;;;6.27;5.53;;;0.00;99.90;;;;;;6104415;28;20444;-64
2021/11/30 04:22:22;;;;;;;6.27;5.47;;;0.00;99.90;;;;;;6104185;28;20463;-64
2021/11/30 04:25:27;;;;;;;7.70;6.57;;;-0.10;99.90;;;;;;6103941;28;20829;-65
2021/11/30 04:28:31;;;;;;;18.30;6.80;;;-0.20;99.90;;;;;;6104273;28;20824;-65
2021/11/30 04:31:35;;;;;;;8.23;6.47;;;-0.10;99.90;;;;;;6104568;28;20475;-66
2021/11/30 04:34:38;;;;;;;8.20;6.10;;;-0.10;99.90;;;;;;6095349;28;20626;-66
2021/11/30 04:37:41;;;;;;;6.77;6.07;;;0.00;99.90;;;;;;6103908;28;20491;-66
2021/11/30 04:40:46;;;;;;;6.90;6.20;;;0.00;99.90;;;;;;6103635;28;20484;-67
2021/11/30 04:43:49;;;;;;;7.10;6.40;;;0.10;99.90;;;;;;6104194;28;20499;-66
2021/11/30 04:46:55;;;;;;;6.80;6.10;;;0.10;99.90;;;;;;6103592;28;20485;-66
2021/11/30 04:49:59;;;;;;;7.90;5.77;;;0.20;99.90;;;;;;6103876;28;20579;-66
2021/11/30 04:53:05;;;;;;;5.20;4.70;;;0.20;99.90;;;;;;6103702;28;20492;-66
2021/11/30 04:56:10;;;;;;;6.07;5.57;;;0.20;99.90;;;;;;6103379;28;20477;-66
2021/11/30 04:59:13;;;;;;;6.20;4.90;;;0.20;99.90;;;;;;6103932;28;21054;-66
2021/11/30 05:02:16;;;;;;;5.47;4.97;;;0.20;99.90;;;;;;6103611;28;20472;-66
2021/11/30 05:05:20;;;;;;;5.87;4.70;;;0.10;99.90;;;;;;6103787;28;20483;-66
2021/11/30 05:08:23;;;;;;;5.90;4.87;;;0.20;99.90;;;;;;6103694;28;20491;-66
2021/11/30 05:11:28;;;;;;;5.77;5.23;;;0.20;99.90;;;;;;6103477;28;20491;-66
2021/11/30 05:14:31;;;;;;;6.90;5.10;;;0.00;99.90;;;;;;6103050;28;20481;-66
2021/11/30 05:17:34;;;;;;;9.53;5.17;;;0.00;99.90;;;;;;6103276;28;20492;-65
2021/11/30 05:20:38;;;;;;;4.97;4.53;;;0.10;99.90;;;;;;6102390;28;20476;-65
2021/11/30 05:23:41;;;;;;;4.60;4.20;;;0.00;99.90;;;;;;6103258;28;20477;-65
2021/11/30 05:26:46;;;;;;;6.73;5.00;;;0.00;99.90;;;;;;6103064;28;20560;-65
2021/11/30 05:29:50;;;;;;;6.60;5.27;;;0.10;99.90;;;;;;6103500;28;20472;-65
2021/11/30 05:32:53;;;;;;;10.40;5.60;;;0.10;99.90;;;;;;6103060;28;20472;-65
2021/11/30 05:35:56;;;;;;;7.60;5.00;;;0.10;99.90;;;;;;6102619;28;20504;-65
2021/11/30 05:39:00;;;;;;;7.33;5.73;;;0.20;99.90;;;;;;6094523;28;20472;-65
2021/11/30 05:42:07;;;;;;;6.73;4.73;;;0.20;99.90;;;;;;6103051;28;20484;-65
2021/11/30 05:45:10;;;;;;;5.67;5.17;;;0.20;99.90;;;;;;6102784;28;20817;-65
2021/11/30 05:48:14;;;;;;;7.03;6.43;;;0.20;99.90;;;;;;6102782;28;20480;-65
2021/11/30 05:51:18;;;;;;;7.07;5.97;;;0.20;99.90;;;;;;6102816;28;20821;-65
2021/11/30 05:54:21;;;;;;;8.97;6.27;;;0.20;99.90;;;;;;6102626;28;20484;-65
2021/11/30 05:57:40;;;;;;;7.87;6.70;;;0.20;99.90;;;;;;6102875;28;20481;-65
2021/11/30 06:00:43;;;;;;;8.13;5.80;;;0.10;99.90;;;;;;6102830;28;20481;-65
2021/11/30 06:04:01;;;;;;;8.07;6.33;;;0.00;99.90;;;;;;6102563;28;21017;-65
2021/11/30 06:07:04;;;;;;;6.63;6.00;;;0.00;99.90;;;;;;6102659;28;20483;-65
2021/11/30 06:10:08;;;;;;;8.57;5.67;;;-0.10;99.90;;;;;;6102396;28;20461;-65
2021/11/30 06:13:12;;;;;;;6.57;5.97;;;-0.10;99.90;;;;;;6102459;28;20453;-65
2021/11/30 06:16:16;;;;;;;8.37;6.30;;;-0.20;99.90;;;;;;6102397;28;20520;-65
2021/11/30 06:19:20;;;;;;;9.17;5.70;;;-0.20;99.90;;;;;;6102737;28;20599;-65
2021/11/30 06:22:23;;;;;;;8.00;7.20;;;-0.20;99.90;;;;;;6102613;28;20509;-65
2021/11/30 06:25:26;;;;;;;8.00;7.03;;;-0.10;99.90;;;;;;6102540;28;20469;-65
2021/11/30 06:28:31;;;;;;;8.33;6.37;;;-0.20;99.90;;;;;;6102054;28;20472;-65
2021/11/30 06:31:34;;;;;;;9.97;7.90;;;-0.20;99.90;;;;;;6105158;28;20472;-66
2021/11/30 06:34:38;;;;;;;11.90;8.00;;;-0.20;99.90;;;;;;6106351;28;20507;-65
2021/11/30 06:37:42;;;;;;;10.70;8.37;;;-0.10;99.90;;;;;;6105972;28;20473;-65
2021/11/30 06:40:45;;;;;;;11.37;9.27;;;-0.20;99.90;;;;;;6102139;28;20460;-65
2021/11/30 06:43:50;;;;;;;10.87;8.50;;;-0.10;99.90;;;;;;6106245;28;20483;-67
2021/11/30 06:46:57;;;;;;;8.57;7.67;;;0.00;99.90;;;;;;6105764;28;20495;-68
2021/11/30 06:50:01;;;;;;;13.87;10.10;;;0.00;99.90;;;;;;6106072;28;20783;-68
2021/11/30 06:53:05;;;;;;;7.50;6.77;;;0.10;99.90;;;;;;6105477;28;20852;-68
2021/11/30 06:56:08;;;;;;;8.87;7.30;;;0.00;99.90;;;;;;6105503;28;20483;-67
2021/11/30 06:59:13;;;;;;;9.70;7.60;;;0.00;99.90;;;;;;6105619;28;20491;-68
2021/11/30 07:02:16;;;;;;;8.30;7.50;;;0.00;99.90;;;;;;6105771;28;20476;-68
2021/11/30 07:05:22;;;;;;;8.37;7.00;;;0.00;99.90;;;;;;6105981;28;20472;-65
2021/11/30 07:08:47;;;;;;;9.50;7.40;;;-0.10;99.90;;;;;;6106347;28;20476;-64
2021/11/30 07:12:06;;;;;;;7.87;7.07;;;-0.10;99.90;;;;;;6106354;28;20481;-66
2021/11/30 07:15:11;;;;;;;8.47;7.60;;;-0.10;99.90;;;;;;6106226;28;20480;-65
2021/11/30 07:18:15;;;;;;;12.10;9.20;;;-0.10;99.90;;;;;;6107810;28;20480;-65
2021/11/30 07:21:18;;;;;;;13.10;10.70;;;-0.10;99.90;;;;;;6109225;28;20491;-67
2021/11/30 07:24:22;;;;;;;17.67;9.20;;;-0.10;99.90;;;;;;6105316;28;20472;-64
2021/11/30 07:27:25;;;;;;;16.57;10.60;;;-0.10;99.90;;;;;;6105491;28;20487;-64
2021/11/30 07:30:30;;;;;;;15.17;11.07;;;-0.10;99.90;;;;;;6105380;28;20479;-63
2021/11/30 07:33:35;;;;;;;14.50;9.97;;;-0.10;99.90;;;;;;6105476;28;20968;-67
2021/11/30 07:36:38;;;;;;;12.67;10.57;;;0.00;99.90;;;;;;6104771;28;20839;-63
2021/11/30 07:39:42;;;;;;;18.00;11.93;;;0.00;99.90;;;;;;6105176;28;20486;-65
2021/11/30 07:42:45;;;;;;;14.13;12.03;;;0.10;99.90;;;;;;6103953;28;20817;-66
2021/11/30 07:45:51;;;;;;;20.83;11.13;;;0.20;99.90;;;;;;6104548;28;20487;-65
2021/11/30 07:48:55;;;;;;;19.53;14.73;;;0.40;99.90;;;;;;6095970;28;20493;-66
2021/11/30 07:51:58;;;;;;;18.60;14.20;;;0.50;99.90;;;;;;6104222;28;20507;-63
2021/11/30 07:55:04;;;;;;;19.03;12.93;;;0.50;99.90;;;;;;6105199;28;20496;-66
2021/11/30 07:58:08;;;;;;;15.17;12.23;;;0.60;99.90;;;;;;6104099;28;20508;-63
2021/11/30 08:01:14;;;;;;;16.93;11.50;;;0.70;99.90;;;;;;6105028;28;20451;-65
2021/11/30 08:04:18;;;;;;;17.50;11.23;;;0.80;99.90;;;;;;6105075;28;20464;-65
2021/11/30 08:07:21;;;;;;;18.90;11.93;;;0.80;99.90;;;;;;6104304;28;20472;-64
2021/11/30 08:10:27;;;;;;;22.97;11.50;;;0.90;99.90;;;;;;6104329;28;20456;-63
2021/11/30 08:13:30;;;;;;;17.50;11.17;;;1.00;99.90;;;;;;6104127;28;20485;-67
2021/11/30 08:16:35;;;;;;;15.60;13.10;;;1.10;99.90;;;;;;6103940;28;20514;-65
2021/11/30 08:19:39;;;;;;;18.80;12.30;;;1.20;99.90;;;;;;6104166;28;20547;-65
2021/11/30 08:22:43;;;;;;;20.43;13.13;;;1.30;99.90;;;;;;6103989;28;20479;-64
2021/11/30 08:25:46;;;;;;;21.80;13.63;;;1.50;99.90;;;;;;6104115;28;20961;-63
2021/11/30 08:28:50;;;;;;;17.30;13.17;;;1.60;99.90;;;;;;6104534;28;20484;-65
2021/11/30 08:31:54;;;;;;;13.43;11.80;;;1.70;99.90;;;;;;6103600;28;20476;-65
2021/11/30 08:34:59;;;;;;;18.40;12.20;;;1.80;99.90;;;;;;6104049;28;20484;-66
2021/11/30 08:38:02;;;;;;;15.13;11.00;;;1.80;99.90;;;;;;6103779;28;20476;-66
2021/11/30 08:41:06;;;;;;;13.93;11.70;;;1.90;99.90;;;;;;6103974;28;20542;-65
2021/11/30 08:44:09;;;;;;;19.60;11.70;;;1.90;99.90;;;;;;6104123;28;20472;-65
2021/11/30 08:47:23;;;;;;;13.60;10.07;;;2.00;99.90;;;;;;6103852;28;20499;-65
2021/11/30 08:50:27;;;;;;;27.80;11.70;;;1.90;99.90;;;;;;6099368;28;20483;-65
2021/11/30 08:53:34;;;;;;;29.77;11.40;;;1.90;99.90;;;;;;6103602;28;20503;-64
2021/11/30 08:56:37;;;;;;;21.90;9.83;;;1.90;99.90;;;;;;6103727;28;20488;-64
2021/11/30 08:59:41;;;;;;;20.07;10.30;;;2.10;99.90;;;;;;6103741;28;20476;-64
2021/11/30 09:02:46;;;;;;;12.80;9.80;;;2.10;99.90;;;;;;6103461;28;20476;-64
2021/11/30 09:05:50;;;;;;;14.97;9.87;;;2.30;99.90;;;;;;6102863;28;20494;-65
2021/11/30 09:08:53;;;;;;;15.50;10.13;;;2.40;99.90;;;;;;6103269;28;20476;-67
2021/11/30 09:11:57;;;;;;;13.23;9.80;;;2.50;99.90;;;;;;6156629;28;20480;-66
2021/11/30 09:15:01;;;;;;;15.50;10.63;;;2.50;99.90;;;;;;6174821;28;20468;-69
2021/11/30 09:18:29;;;;;;;11.40;9.90;;;2.70;99.90;;;;;;6190749;28;20973;-67
2021/11/30 09:21:32;;;;;;;11.67;10.30;;;3.00;99.90;;;;;;6103057;28;20487;-66
2021/11/30 09:24:36;;;;;;;14.20;9.77;;;3.20;99.20;;;;;;6103136;28;20508;-67
2021/11/30 09:27:40;;;;;;;16.60;10.30;;;3.30;98.90;;;;;;6168571;28;20468;-67
2021/11/30 09:30:43;;;;;;;14.30;10.90;;;3.30;98.70;;;;;;6226220;28;20802;-67
2021/11/30 09:34:01;;;;;;;17.63;10.10;;;3.40;98.90;;;;;;6225993;28;20532;-66
2021/11/30 09:37:07;;;;;;;10.40;9.33;;;3.50;98.60;;;;;;6225523;28;20503;-66
2021/11/30 09:40:15;;;;;;;16.00;9.77;;;3.80;98.70;;;;;;6225693;28;20455;-67
2021/11/30 09:43:19;;;;;;;13.00;8.23;;;4.10;98.20;;;;;;6217793;28;20421;-66
2021/11/30 09:46:23;;;;;;;10.57;8.90;;;4.50;97.40;;;;;;6102473;28;20956;-67
2021/11/30 09:49:28;;;;;;;10.63;8.80;;;4.80;96.30;;;;;;6102550;28;20456;-66
2021/11/30 09:52:32;;;;;;;10.70;8.20;;;5.20;96.00;;;;;;6098083;28;20929;-66
2021/11/30 09:55:36;;;;;;;9.23;7.57;;;5.40;95.10;;;;;;6102264;28;20484;-67
2021/11/30 09:58:40;;;;;;;12.20;7.93;;;5.50;94.00;;;;;;6102355;28;20811;-67
2021/11/30 10:01:44;;;;;;;10.63;7.60;;;5.40;93.50;;;;;;6102432;28;20961;-66
2021/11/30 10:04:50;;;;;;;13.07;8.47;;;5.40;93.40;;;;;;6100779;28;20483;-65
2021/11/30 10:07:55;;;;;;;8.90;6.77;;;5.50;93.60;;;;;;6101675;28;20488;-65
2021/11/30 10:10:59;;;;;;;20.20;9.27;;;5.60;92.90;;;;;;6102234;28;20472;-64
2021/11/30 10:14:14;;;;;;;8.67;6.70;;;5.50;92.50;;;;;;6102131;28;20473;-64
2021/11/30 10:17:20;;;;;;;10.70;7.57;;;5.30;92.10;;;;;;6102220;28;20491;-63
2021/11/30 10:20:30;;;;;;;8.60;7.63;;;5.20;92.00;;;;;;6102367;28;20484;-64
2021/11/30 10:23:45;;;;;;;7.93;6.90;;;5.00;92.30;;;;;;6078632;28;20497;-64
2021/11/30 10:26:49;;;;;;;7.07;6.03;;;4.90;92.70;;;;;;6078629;28;20568;-64
2021/11/30 10:29:52;;;;;;;7.57;6.60;;;4.90;92.90;;;;;;6078457;28;20489;-64
2021/11/30 10:32:57;;;;;;;6.50;5.90;;;4.90;92.70;;;;;;6078128;28;20481;-64
2021/11/30 10:36:04;;;;;;;8.93;6.80;;;5.00;93.30;;;;;;6087909;28;20489;-64
2021/11/30 10:39:17;;;;;;;6.60;5.97;;;4.90;92.60;;;;;;6101373;28;20481;-64
2021/11/30 10:42:24;;;;;;;8.73;6.13;;;5.10;92.90;;;;;;6101478;28;20476;-64
2021/11/30 10:45:30;;;;;;;19.13;7.13;;;5.40;92.70;;;;;;6101778;28;20488;-63
2021/11/30 10:48:34;;;;;;;19.17;6.90;;;5.80;92.60;;;;;;6101293;28;20488;-64
2021/11/30 10:51:48;;;;;;;10.60;6.07;;;6.30;92.00;;;;;;6101207;28;20473;-63
2021/11/30 10:55:05;;;;;;;12.53;6.50;;;6.40;90.50;;;;;;6101306;28;20530;-63
2021/11/30 10:58:10;;;;;;;13.43;6.63;;;6.50;90.00;;;;;;6100901;28;20500;-63
2021/11/30 11:01:16;;;;;;;7.43;6.00;;;6.60;89.30;;;;;;6101742;28;20467;-63
2021/11/30 11:04:30;;;;;;;7.07;6.37;;;6.70;89.20;;;;;;6102009;28;20452;-64
2021/11/30 11:07:34;;;;;;;6.47;5.37;;;6.70;88.30;;;;;;6101116;28;20465;-64
2021/11/30 11:10:39;;;;;;;6.70;6.03;;;6.90;86.90;;;;;;6102350;28;20476;-65
2021/11/30 11:13:43;;;;;;;9.20;6.43;;;6.80;86.60;;;;;;6101504;28;20483;-64
2021/11/30 11:16:50;;;;;;;8.03;6.60;;;6.80;87.10;;;;;;6101048;28;20491;-63
2021/11/30 11:19:53;;;;;;;8.53;6.90;;;6.60;87.00;;;;;;6104822;28;20982;-64
2021/11/30 11:22:58;;;;;;;8.60;6.90;;;6.70;87.40;;;;;;6105162;28;20476;-66
2021/11/30 11:26:19;;;;;;;8.80;6.30;;;6.70;87.70;;;;;;6103513;28;20806;-66
2021/11/30 11:29:24;;;;;;;9.53;6.07;;;6.80;87.30;;;;;;6103437;28;20472;-67
2021/11/30 11:32:27;;;;;;;8.00;6.80;;;7.00;86.80;;;;;;6103535;28;20967;-68
2021/11/30 11:35:31;;;;;;;8.20;6.57;;;7.10;87.50;;;;;;6103203;28;20492;-66
2021/11/30 11:38:35;;;;;;;9.00;7.20;;;7.60;88.40;;;;;;6103391;28;20485;-67
2021/11/30 11:41:38;;;;;;;16.90;9.07;;;10.50;84.50;;;;;;6103314;28;20472;-68
2021/11/30 11:44:42;;;;;;;7.43;6.20;;;14.00;68.30;;;;;;6103670;28;20472;-66
2021/11/30 11:47:46;;;;;;;8.93;7.60;;;16.40;52.80;;;;;;6103207;28;20479;-66
2021/11/30 11:50:54;;;;;;;7.30;6.10;;;18.00;48.30;;;;;;6103374;28;20473;-66
2021/11/30 11:53:58;;;;;;;10.00;7.07;;;19.40;42.80;;;;;;6104086;28;20476;-66
2021/11/30 11:57:04;;;;;;;8.30;6.83;;;20.00;40.00;;;;;;6104286;28;20487;-66
2021/11/30 12:00:19;;;;;;;8.33;6.67;;;22.10;36.60;;;;;;6104529;28;20233;-63
2021/11/30 12:03:22;;;;;;;9.20;5.20;;;24.20;31.60;;;;;;6095255;28;20236;-66
2021/11/30 12:06:27;;;;;;;20.50;7.67;;;25.10;29.10;;;;;;6103973;28;20239;-66
2021/11/30 12:09:32;;;;;;;9.63;5.37;;;24.60;28.40;;;;;;6104137;28;20228;-66
2021/11/30 12:12:35;;;;;;;6.00;4.60;;;24.20;28.30;;;;;;6104385;28;20250;-67
2021/11/30 12:15:58;;;;;;;8.43;4.43;;;22.20;28.60;;;;;;6103954;28;20232;-67
2021/11/30 12:19:27;;;;;;;6.27;4.70;;;20.30;29.90;;;;;;6103869;28;20240;-66
2021/11/30 12:22:53;;;;;;;11.23;4.53;;;17.80;32.30;;;;;;6104300;28;20243;-65
2021/11/30 12:25:59;;;;;;;10.30;5.17;;;16.20;35.00;;;;;;6104019;28;20477;-70
2021/11/30 12:29:05;;;;;;;8.80;4.30;;;16.10;36.20;;;;;;6104095;28;20484;-66
2021/11/30 12:32:16;;;;;;;4.50;4.10;;;15.10;36.70;;;;;;6104837;28;20571;-66
2021/11/30 12:35:20;;;;;;;8.70;4.00;;;14.20;38.10;;;;;;6104203;28;20484;-66
2021/11/30 12:38:28;;;;;;;6.03;4.77;;;13.00;40.40;;;;;;6104263;28;20480;-66
2021/11/30 12:41:36;;;;;;;4.43;4.03;;;12.70;42.10;;;;;;6104531;28;20556;-64
2021/11/30 12:44:43;;;;;;;4.97;3.80;;;13.60;42.00;;;;;;6105455;28;20535;-64
2021/11/30 12:47:46;;;;;;;7.07;4.33;;;14.70;39.80;;;;;;6103962;28;20496;-65
2021/11/30 12:50:57;;;;;;;7.30;5.03;;;15.60;38.20;;;;;;6103863;28;20787;-65
2021/11/30 12:54:02;;;;;;;5.63;3.83;;;15.40;37.60;;;;;;6103498;28;20484;-66
2021/11/30 12:57:08;;;;;;;6.07;3.63;;;15.70;37.40;;;;;;6103012;28;20484;-64
2021/11/30 13:00:20;;;;;;;4.10;3.70;;;15.70;37.40;;;;;;6103437;28;20472;-65
2021/11/30 13:03:24;;;;;;;4.97;3.10;;;15.90;37.10;;;;;;6103039;28;20502;-63
2021/11/30 13:06:28;;;;;;;5.27;3.60;;;15.40;36.70;;;;;;6102894;28;20480;-63
2021/11/30 13:09:37;;;;;;;9.57;3.17;;;14.80;37.30;;;;;;6103426;28;20824;-66
2021/11/30 13:12:42;;;;;;;5.20;3.30;;;14.20;38.40;;;;;;6103232;28;20791;-63
2021/11/30 13:15:48;;;;;;;7.20;3.80;;;13.70;39.50;;;;;;6103185;28;20496;-64
2021/11/30 13:18:51;;;;;;;10.03;4.67;;;13.10;40.50;;;;;;6103262;28;20487;-64
2021/11/30 13:21:59;;;;;;;3.97;3.57;;;12.80;41.20;;;;;;6102947;28;20480;-65
2021/11/30 13:25:02;;;;;;;5.50;4.37;;;12.20;42.30;;;;;;6102635;28;20799;-65
2021/11/30 13:28:12;;;;;;;8.27;5.13;;;11.70;43.80;;;;;;6102492;28;20506;-64
2021/11/30 13:31:15;;;;;;;4.77;3.70;;;11.10;45.10;;;;;;6102462;28;20797;-64
2021/11/30 13:34:19;;;;;;;9.70;5.60;;;10.70;46.40;;;;;;6103034;28;20456;-65
2021/11/30 13:37:22;;;;;;;5.80;4.37;;;10.30;47.70;;;;;;6102185;28;20484;-64
2021/11/30 13:40:40;;;;;;;6.40;4.97;;;10.50;48.20;;;;;;6101296;28;20487;-65
2021/11/30 13:43:47;;;;;;;8.17;5.30;;;10.90;48.50;;;;;;6102747;28;20468;-64
2021/11/30 13:46:51;;;;;;;7.87;5.97;;;11.40;46.90;;;;;;6102598;28;20477;-64
2021/11/30 13:49:54;;;;;;;8.33;4.57;;;11.40;47.00;;;;;;6102760;28;20480;-64
2021/11/30 13:53:12;;;;;;;7.63;6.93;;;11.10;47.20;;;;;;6102153;28;20476;-65
2021/11/30 13:56:19;;;;;;;11.07;5.17;;;10.70;48.20;;;;;;6102092;28;20815;-63
2021/11/30 13:59:33;;;;;;;15.83;8.57;;;11.00;48.80;;;;;;6102451;28;20488;-64
2021/11/30 14:02:44;;;;;;;39.60;18.53;;;12.00;47.90;;;;;;6101973;28;21011;-64
2021/11/30 14:05:47;;;;;;;17.20;8.83;;;12.90;45.60;;;;;;6102623;28;20476;-66
2021/11/30 14:08:51;;;;;;;5.23;4.10;;;12.80;44.40;;;;;;6097775;28;20526;-66
2021/11/30 14:11:57;;;;;;;14.10;6.07;;;12.30;44.80;;;;;;6102832;28;20472;-64
2021/11/30 14:15:11;;;;;;;6.63;4.10;;;11.70;45.80;;;;;;6102876;28;20477;-64
2021/11/30 14:18:15;;;;;;;5.03;3.50;;;10.90;46.80;;;;;;6101970;28;20469;-67
2021/11/30 14:21:18;;;;;;;6.87;4.00;;;10.40;47.50;;;;;;6102218;28;20981;-66
2021/11/30 14:24:22;;;;;;;5.73;4.50;;;9.70;50.10;;;;;;6102580;28;20534;-67
2021/11/30 14:27:26;;;;;;;11.90;5.50;;;9.10;51.90;;;;;;6101900;28;20667;-65
2021/11/30 14:30:35;;;;;;;7.70;3.83;;;8.60;53.20;;;;;;6102235;28;20503;-62
2021/11/30 14:33:38;;;;;;;3.77;3.40;;;8.20;54.00;;;;;;6102799;28;20479;-65
2021/11/30 14:36:41;;;;;;;5.03;4.53;;;8.00;55.00;;;;;;6101841;28;20802;-63
2021/11/30 14:39:45;;;;;;;5.43;3.77;;;7.70;55.90;;;;;;6101594;28;20836;-64
2021/11/30 14:42:50;;;;;;;3.77;3.30;;;7.50;56.80;;;;;;6102229;28;20483;-66
2021/11/30 14:45:54;;;;;;;6.30;3.47;;;7.30;57.70;;;;;;6101367;28;20807;-62
2021/11/30 14:48:58;;;;;;;3.43;3.13;;;7.10;58.40;;;;;;6102503;28;20468;-65
2021/11/30 14:52:01;;;;;;;6.40;3.80;;;7.00;59.10;;;;;;6103277;28;20552;-63
2021/11/30 14:55:16;;;;;;;5.20;3.13;;;6.90;60.50;;;;;;6105991;28;20488;-63
2021/11/30 14:58:26;;;;;;;3.53;3.10;;;6.80;61.00;;;;;;6105741;28;20453;-62
2021/11/30 15:01:35;;;;;;;4.17;3.20;;;6.70;61.30;;;;;;6104875;28;20805;-61
2021/11/30 15:04:38;;;;;;;5.67;3.43;;;6.60;61.50;;;;;;6108527;28;20965;-61
2021/11/30 15:07:42;;;;;;;5.60;4.10;;;6.50;62.20;;;;;;6213261;28;20813;-61
2021/11/30 15:10:57;;;;;;;6.90;4.87;;;6.50;62.90;;;;;;6105229;28;20499;-60
2021/11/30 15:14:06;;;;;;;4.00;3.70;;;6.30;63.90;;;;;;6101124;28;20817;-60
2021/11/30 15:17:13;;;;;;;4.97;3.37;;;6.10;65.30;;;;;;6105177;28;20483;-60
2021/11/30 15:20:17;;;;;;;5.80;3.87;;;6.10;66.10;;;;;;6081826;28;20485;-60
2021/11/30 15:23:23;;;;;;;5.53;3.90;;;6.00;66.30;;;;;;6081386;28;20484;-61
2021/11/30 15:26:30;;;;;;;4.27;3.87;;;6.00;66.90;;;;;;6081624;28;20829;-61
2021/11/30 15:29:34;;;;;;;11.10;5.90;;;6.10;67.80;;;;;;6081376;28;21007;-61
2021/11/30 15:32:40;;;;;;;8.50;4.80;;;6.00;70.20;;;;;;6082061;28;20496;-61
2021/11/30 15:35:43;;;;;;;10.73;6.03;;;6.00;71.00;;;;;;6102679;28;20837;-62
2021/11/30 15:38:47;;;;;;;9.70;4.53;;;6.00;70.80;;;;;;6104943;28;20483;-62
2021/11/30 15:41:51;;;;;;;6.20;4.90;;;6.00;71.60;;;;;;6104337;28;21094;-62
2021/11/30 15:44:54;;;;;;;7.40;4.10;;;6.00;72.40;;;;;;6105443;28;20472;-61
2021/11/30 15:47:59;;;;;;;5.90;4.00;;;6.00;72.00;;;;;;6104239;28;20491;-61
2021/11/30 15:51:02;;;;;;;8.03;4.77;;;5.90;71.50;;;;;;6104549;28;20473;-61
2021/11/30 15:54:07;;;;;;;13.37;6.80;;;5.90;72.20;;;;;;6104887;28;20960;-60
2021/11/30 15:57:24;;;;;;;24.53;10.67;;;5.90;73.30;;;;;;6105075;28;20487;-60
2021/11/30 16:00:27;;;;;;;14.53;8.33;;;5.80;73.80;;;;;;6104879;28;20491;-60
2021/11/30 16:03:33;;;;;;;9.00;6.83;;;5.80;73.90;;;;;;6103906;28;21003;-61
2021/11/30 16:06:37;;;;;;;29.23;12.10;;;5.80;75.00;;;;;;6187507;28;20491;-61
2021/11/30 16:09:42;;;;;;;20.03;13.67;;;5.80;75.30;;;;;;6120093;28;20999;-61
2021/11/30 16:12:45;;;;;;;20.30;11.87;;;5.80;76.10;;;;;;6105872;28;20480;-61
2021/11/30 16:15:49;;;;;;;11.67;9.77;;;5.80;76.70;;;;;;6105948;28;20491;-61